Terminal Aerodrome Forecast
Issued by NWS Atlanta, GA

Home | Current Version | Previous Version | Text Only | Print | Product List | Glossary On
Versions: 1 2 3 4 5 6 7 8 9 10 11 12 13 14 15 16 17 18 19 20
000
FTUS42 KFFC 202300
TAFCSG
TAF
KCSG 202332Z 2100/2124 29007KT 5SM -RA BKN045 BKN080
      TEMPO 2101/2103 VRB15G25KT 3SM -TSRA BKN030CB
     FM210300 28005KT P6SM SCT035 BKN070
     FM210700 VRB03KT 3SM BR SCT006
     FM211400 24005KT P6SM SCT025
     FM211700 26008KT P6SM SCT045=

USA.gov is the U.S. government's official web portal to all federal, state and local government web resources and services.